Time;durP1;ratioP1;P1;durP2;ratioP2;P2;SDS_P1;SDS_P2;PMS_P1;PMS_P2;Temp;Humidity;BMP_temperature;BMP_pressure;BME280_temperature;BME280_humidity;BME280_pressure;Samples;Min_cycle;Max_cycle;Signal;HPM_P1;HPM_P2
2023/02/25 00:01:26;;;;;;;12.63;1.90;;;;;;;-143.48;84.44;118439.88;5114065;28;20031;-71
2023/02/25 00:03:52;;;;;;;13.10;2.00;;;;;;;-143.48;83.86;118439.88;5095612;28;20023;-71
2023/02/25 00:06:18;;;;;;;13.57;1.90;;;;;;;-143.48;84.96;118439.88;5109188;28;20135;-71
2023/02/25 00:08:44;;;;;;;8.27;1.67;;;;;;;-143.48;84.31;118439.88;5093008;28;20024;-71
2023/02/25 00:11:13;;;;;;;12.50;1.85;;;;;;;-143.48;85.02;118439.88;5091653;28;20433;-71
2023/02/25 00:13:41;;;;;;;12.10;1.80;;;;;;;-143.48;84.13;118439.88;5090387;28;20024;-71
2023/02/25 00:16:07;;;;;;;8.40;1.40;;;;;;;-143.48;83.12;118439.88;5091941;28;20023;-71
2023/02/25 00:18:32;;;;;;;10.55;1.40;;;;;;;-143.48;82.71;118439.88;5090344;28;20360;-70
2023/02/25 00:20:59;;;;;;;9.13;1.50;;;;;;;-143.48;82.99;118439.88;5090426;28;20444;-70
2023/02/25 00:23:24;;;;;;;12.13;1.25;;;;;;;-143.48;82.94;118439.88;5090193;28;20043;-70
2023/02/25 00:26:00;;;;;;;7.13;1.83;;;;;;;-143.48;83.78;118439.88;5090017;28;20471;-71
2023/02/25 00:28:26;;;;;;;6.90;1.33;;;;;;;-143.48;85.20;118439.88;5091133;28;20032;-70
2023/02/25 00:30:52;;;;;;;10.07;1.30;;;;;;;-143.48;85.78;118439.88;5091797;28;20031;-70
2023/02/25 00:33:18;;;;;;;7.13;1.63;;;;;;;-143.48;86.09;118439.88;5089823;28;20399;-70
2023/02/25 00:35:44;;;;;;;7.35;1.40;;;;;;;-143.48;87.49;118439.88;5091132;28;20028;-71
2023/02/25 00:38:09;;;;;;;14.65;2.00;;;;;;;-143.48;87.83;118439.88;5091804;28;20043;-71
2023/02/25 00:40:39;;;;;;;10.88;1.60;;;;;;;-143.48;88.29;118439.88;5094565;28;20085;-70
2023/02/25 00:43:05;;;;;;;9.73;1.35;;;;;;;-143.48;87.04;118439.88;5096137;28;20024;-71
2023/02/25 00:45:30;;;;;;;9.23;1.85;;;;;;;-143.48;88.34;118439.88;5097467;28;20498;-71
2023/02/25 00:47:55;;;;;;;13.05;2.25;;;;;;;-143.48;88.58;118439.88;5097224;28;20032;-71
2023/02/25 00:50:21;;;;;;;7.85;1.92;;;;;;;-143.48;88.16;118439.88;5097275;28;20475;-70
2023/02/25 00:52:46;;;;;;;13.60;2.25;;;;;;;-143.48;87.50;118439.88;5096038;28;20023;-71
2023/02/25 00:55:12;;;;;;;8.60;1.58;;;;;;;-143.48;87.36;118439.88;5097211;28;20024;-71
2023/02/25 00:57:37;;;;;;;12.25;1.52;;;;;;;-143.48;87.54;118439.88;5097332;28;20016;-71
2023/02/25 01:00:09;;;;;;;17.65;2.05;;;;;;;-143.48;86.88;118439.88;5095774;28;20471;-71
2023/02/25 01:02:34;;;;;;;12.98;2.05;;;;;;;-143.48;86.92;118439.88;5097014;28;20494;-71
2023/02/25 01:04:59;;;;;;;19.38;2.60;;;;;;;-143.48;87.55;118439.88;5100488;28;20047;-71
2023/02/25 01:07:25;;;;;;;13.35;2.03;;;;;;;-143.48;87.52;118439.88;5117335;28;20449;-71
2023/02/25 01:09:54;;;;;;;12.95;1.80;;;;;;;-143.48;86.84;118439.88;5098855;28;20019;-71
2023/02/25 01:12:19;;;;;;;10.45;2.05;;;;;;;-143.48;86.47;118439.88;5117264;28;20069;-71
2023/02/25 01:14:45;;;;;;;19.67;2.60;;;;;;;-143.48;86.51;118439.88;5117266;28;20421;-71
2023/02/25 01:17:10;;;;;;;18.65;2.30;;;;;;;-143.48;86.24;118439.88;5098855;28;20055;-71
2023/02/25 01:19:35;;;;;;;27.42;2.47;;;;;;;-143.48;86.01;118439.88;5098929;28;20051;-71
2023/02/25 01:22:01;;;;;;;13.05;2.00;;;;;;;-143.48;85.43;118439.88;5098778;28;20471;-71
2023/02/25 01:24:29;;;;;;;15.77;2.97;;;;;;;-143.48;85.07;118439.88;5116936;28;20030;-71
2023/02/25 01:26:57;;;;;;;18.75;2.22;;;;;;;-143.48;86.65;118439.88;5117175;28;20059;-71
2023/02/25 01:29:26;;;;;;;23.05;2.50;;;;;;;-143.48;86.97;118439.88;5098626;28;20057;-72
2023/02/25 01:31:53;;;;;;;17.73;2.30;;;;;;;-143.48;86.83;118439.88;5098628;28;20023;-70
2023/02/25 01:34:19;;;;;;;17.30;2.55;;;;;;;-143.48;87.86;118439.88;5098650;28;20474;-70
2023/02/25 01:36:45;;;;;;;15.50;2.85;;;;;;;-143.48;89.36;118439.88;5098514;28;20026;-70
2023/02/25 01:39:12;;;;;;;20.10;2.63;;;;;;;-143.48;90.45;118439.88;5115444;28;20024;-71
2023/02/25 01:41:38;;;;;;;13.18;2.20;;;;;;;-143.48;91.44;118439.88;5116756;28;20047;-71
2023/02/25 01:44:20;;;;;;;14.68;2.13;;;;;;;-143.48;92.39;118439.88;5098301;28;20081;-71
2023/02/25 01:46:48;;;;;;;14.48;1.75;;;;;;;-143.48;92.96;118439.88;5116539;28;20375;-71
2023/02/25 01:49:28;;;;;;;18.00;2.85;;;;;;;-143.48;93.05;118439.88;5098137;28;20020;-71
2023/02/25 01:51:59;;;;;;;19.75;2.13;;;;;;;-143.48;93.55;118439.88;5097841;28;20019;-71
2023/02/25 01:54:24;;;;;;;23.55;3.10;;;;;;;-143.48;93.93;118439.88;5115124;28;20493;-71
2023/02/25 01:56:54;;;;;;;17.13;2.25;;;;;;;-143.48;93.61;118439.88;5116333;28;20020;-70
2023/02/25 01:59:23;;;;;;;24.60;3.22;;;;;;;-143.48;93.04;118439.88;5098151;28;20027;-71
2023/02/25 02:01:50;;;;;;;15.90;2.40;;;;;;;-143.48;92.73;118439.88;5116248;28;20535;-70
2023/02/25 02:04:16;;;;;;;23.13;2.88;;;;;;;-143.48;92.94;118439.88;5116191;28;20134;-70
2023/02/25 02:06:44;;;;;;;18.95;2.85;;;;;;;-143.48;92.84;118439.88;5114756;28;20060;-70
2023/02/25 02:09:13;;;;;;;28.27;3.00;;;;;;;-143.48;93.17;118439.88;5115895;28;20069;-71
2023/02/25 02:11:38;;;;;;;24.80;2.78;;;;;;;-143.48;92.51;118439.88;5097848;28;20024;-71
2023/02/25 02:14:06;;;;;;;20.27;2.97;;;;;;;-143.48;92.20;118439.88;5097848;28;20027;-71
2023/02/25 02:16:45;;;;;;;16.27;2.70;;;;;;;-143.48;91.46;118439.88;5097752;28;20115;-71
2023/02/25 02:19:35;;;;;;;19.48;2.63;;;;;;;-143.48;90.51;118439.88;5115870;28;20486;-70
2023/02/25 02:22:24;;;;;;;16.30;2.58;;;;;;;-143.48;91.22;118439.88;5097548;28;20051;-71
2023/02/25 02:25:02;;;;;;;23.58;2.65;;;;;;;-143.48;90.58;118439.88;5104850;28;20044;-71
2023/02/25 02:27:30;;;;;;;20.27;2.00;;;;;;;-143.48;89.97;118439.88;5115902;28;20580;-70
2023/02/25 02:30:26;;;;;;;16.38;3.00;;;;;;;-143.48;90.25;118439.88;5097327;28;20035;-70
2023/02/25 02:33:18;;;;;;;17.95;2.50;;;;;;;-143.48;90.84;118439.88;5115855;28;20026;-70
2023/02/25 02:35:59;;;;;;;24.40;3.40;;;;;;;-143.48;90.97;118439.88;5115822;28;20027;-71
2023/02/25 02:38:42;;;;;;;18.67;2.75;;;;;;;-143.48;90.70;118439.88;5115591;28;20399;-70
2023/02/25 02:41:46;;;;;;;15.13;2.45;;;;;;;-143.48;90.71;118439.88;5115608;28;20030;-70
2023/02/25 02:44:43;;;;;;;14.57;2.58;;;;;;;-143.48;90.43;118439.88;5084307;28;20035;-71
2023/02/25 02:47:36;;;;;;;11.82;1.98;;;;;;;-143.48;90.40;118439.88;5069612;28;20032;-71
2023/02/25 02:50:12;;;;;;;25.90;2.55;;;;;;;-143.48;89.25;118439.88;5088738;28;20040;-70
2023/02/25 02:52:43;;;;;;;12.52;2.55;;;;;;;-143.48;89.26;118439.88;5097131;28;20391;-70
2023/02/25 02:55:26;;;;;;;24.52;2.63;;;;;;;-143.48;89.29;118439.88;5114021;28;20390;-70
2023/02/25 02:58:05;;;;;;;22.73;2.87;;;;;;;-143.48;89.33;118439.88;5114116;28;20474;-70
2023/02/25 03:00:38;;;;;;;19.10;2.70;;;;;;;-143.48;89.10;118439.88;5115084;28;20028;-70
2023/02/25 03:03:10;;;;;;;26.40;3.08;;;;;;;-143.48;88.06;118439.88;5114420;28;20440;-71
2023/02/25 03:05:36;;;;;;;19.02;2.80;;;;;;;-143.48;88.25;118439.88;5114960;28;20054;-71
2023/02/25 03:08:21;;;;;;;20.25;2.58;;;;;;;-143.48;88.47;118439.88;5115018;28;20149;-71
2023/02/25 03:10:46;;;;;;;15.38;2.85;;;;;;;-143.48;87.73;118439.88;5115550;28;20046;-71
2023/02/25 03:13:12;;;;;;;18.90;2.53;;;;;;;-143.48;88.34;118439.88;5098325;28;20119;-69
2023/02/25 03:15:39;;;;;;;18.52;2.60;;;;;;;-143.48;88.08;118439.88;5098814;28;20044;-69
2023/02/25 03:18:17;;;;;;;14.80;2.85;;;;;;;-143.48;87.47;118439.88;5116627;28;20391;-70
2023/02/25 03:20:45;;;;;;;21.55;2.75;;;;;;;-143.48;85.35;118439.88;5115867;28;20146;-70
2023/02/25 03:23:27;;;;;;;18.20;2.88;;;;;;;-143.48;87.28;118439.88;5113434;28;20051;-71
2023/02/25 03:26:09;;;;;;;16.65;2.35;;;;;;;-143.48;87.88;118439.88;5114834;28;20019;-71
2023/02/25 03:28:34;;;;;;;25.73;2.65;;;;;;;-143.48;87.42;118439.88;5113381;28;20040;-70
2023/02/25 03:31:23;;;;;;;17.42;2.30;;;;;;;-143.48;86.97;118439.88;5114749;28;20106;-70
2023/02/25 03:33:56;;;;;;;20.25;2.20;;;;;;;-143.48;87.19;118439.88;5114813;28;20474;-70
2023/02/25 03:36:36;;;;;;;14.20;2.50;;;;;;;-143.48;87.00;118439.88;5115029;28;20026;-70
2023/02/25 03:39:10;;;;;;;20.10;2.67;;;;;;;-143.48;86.87;118439.88;5115977;28;20020;-70
2023/02/25 03:41:40;;;;;;;17.55;2.45;;;;;;;-143.48;86.40;118439.88;5113280;28;20535;-70
2023/02/25 03:44:11;;;;;;;21.55;2.75;;;;;;;-143.48;86.59;118439.88;5114298;28;20140;-70
2023/02/25 03:46:38;;;;;;;18.73;2.47;;;;;;;-143.48;86.42;118439.88;5114355;28;20027;-70
2023/02/25 03:49:05;;;;;;;13.13;2.08;;;;;;;-143.48;86.26;118439.88;5112741;28;20114;-70
2023/02/25 03:51:39;;;;;;;17.40;2.17;;;;;;;-143.48;85.47;118439.88;5114069;28;20071;-71
2023/02/25 03:54:06;;;;;;;16.73;2.70;;;;;;;-143.48;84.95;118439.88;5114128;28;20019;-70
2023/02/25 03:56:41;;;;;;;14.65;2.40;;;;;;;-143.48;84.32;118439.88;5114058;28;20390;-71
2023/02/25 03:59:07;;;;;;;16.35;2.33;;;;;;;-143.48;84.79;118439.88;5113924;28;20095;-71
2023/02/25 04:01:32;;;;;;;18.33;2.35;;;;;;;-143.48;84.76;118439.88;5095755;28;20084;-70
2023/02/25 04:03:57;;;;;;;18.70;2.22;;;;;;;-143.48;84.29;118439.88;5113951;28;20136;-70
2023/02/25 04:06:23;;;;;;;20.70;2.72;;;;;;;-143.48;83.99;118439.88;5113751;28;20053;-70
2023/02/25 04:08:50;;;;;;;18.48;2.30;;;;;;;-143.48;83.41;118439.88;5095597;28;20482;-71
2023/02/25 04:11:15;;;;;;;17.40;2.67;;;;;;;-143.48;84.17;118439.88;5113861;28;20050;-70
2023/02/25 04:13:40;;;;;;;23.85;2.75;;;;;;;-143.48;84.65;118439.88;5113938;28;20103;-70
2023/02/25 04:16:07;;;;;;;25.45;2.97;;;;;;;-143.48;84.42;118439.88;5095619;28;20038;-69
2023/02/25 04:18:32;;;;;;;20.73;2.53;;;;;;;-143.48;84.44;118439.88;5113658;28;20046;-70
2023/02/25 04:20:58;;;;;;;14.80;2.88;;;;;;;-143.48;83.46;118439.88;5112398;28;20051;-70
2023/02/25 04:23:23;;;;;;;14.40;2.10;;;;;;;-143.48;84.00;118439.88;5113734;28;20051;-70
2023/02/25 04:25:48;;;;;;;18.70;2.20;;;;;;;-143.48;84.24;118439.88;5113666;28;20023;-70
2023/02/25 04:28:14;;;;;;;19.70;2.30;;;;;;;-143.48;84.08;118439.88;5113509;28;20077;-70
2023/02/25 04:30:39;;;;;;;16.38;2.95;;;;;;;-143.48;83.70;118439.88;5112284;28;20024;-70
2023/02/25 04:33:04;;;;;;;20.20;2.50;;;;;;;-143.48;83.36;118439.88;5113535;28;20019;-70
2023/02/25 04:35:30;;;;;;;16.63;2.25;;;;;;;-143.48;82.54;118439.88;5113577;28;20024;-71
2023/02/25 04:37:55;;;;;;;17.98;2.17;;;;;;;-143.48;82.64;118439.88;5113605;28;20480;-70
2023/02/25 04:40:21;;;;;;;17.38;1.98;;;;;;;-143.48;82.43;118439.88;5095280;28;20374;-70
2023/02/25 04:42:47;;;;;;;15.80;2.00;;;;;;;-143.48;82.11;118439.88;5113402;28;20402;-70
2023/02/25 04:45:14;;;;;;;15.98;2.20;;;;;;;-143.48;83.66;118439.88;5113488;28;20034;-70
2023/02/25 04:47:40;;;;;;;16.05;2.20;;;;;;;-143.48;82.43;118439.88;5113406;28;20106;-70
2023/02/25 04:50:07;;;;;;;18.52;2.33;;;;;;;-143.48;81.92;118439.88;5113322;28;20106;-71
2023/02/25 04:52:32;;;;;;;21.55;2.30;;;;;;;-143.48;83.09;118439.88;5113230;28;20023;-71
2023/02/25 04:54:58;;;;;;;18.40;2.63;;;;;;;-143.48;83.15;118439.88;5112054;28;20364;-70
2023/02/25 04:57:23;;;;;;;13.35;1.90;;;;;;;-143.48;83.48;118439.88;5113426;28;20034;-71
2023/02/25 04:59:49;;;;;;;17.60;2.03;;;;;;;-143.48;82.99;118439.88;5113479;28;20016;-71
2023/02/25 05:02:14;;;;;;;16.95;2.42;;;;;;;-143.48;83.14;118439.88;5095009;28;20016;-71
2023/02/25 05:04:40;;;;;;;18.33;2.38;;;;;;;-143.48;82.93;118439.88;5094822;28;20020;-71
2023/02/25 05:07:06;;;;;;;15.43;2.15;;;;;;;-143.48;83.56;118439.88;5113403;28;20042;-71
2023/02/25 05:09:32;;;;;;;19.48;2.30;;;;;;;-143.48;82.93;118439.88;5113205;28;20098;-71
2023/02/25 05:11:57;;;;;;;20.55;2.83;;;;;;;-143.48;82.85;118439.88;5113184;28;20054;-71
2023/02/25 05:14:22;;;;;;;12.45;2.55;;;;;;;-143.48;82.61;118439.88;5113292;28;20031;-71
2023/02/25 05:16:48;;;;;;;21.33;2.60;;;;;;;-143.48;82.75;118439.88;5113102;28;20031;-71
2023/02/25 05:19:15;;;;;;;17.30;2.80;;;;;;;-143.48;82.85;118439.88;5113148;28;20053;-71
2023/02/25 05:21:41;;;;;;;18.30;2.10;;;;;;;-143.48;83.56;118439.88;5095194;28;20035;-71
2023/02/25 05:24:06;;;;;;;23.00;2.67;;;;;;;-143.48;83.74;118439.88;5113154;28;20027;-71
2023/02/25 05:26:31;;;;;;;20.55;2.47;;;;;;;-143.48;83.56;118439.88;5114482;28;20061;-71
2023/02/25 05:28:58;;;;;;;15.70;2.28;;;;;;;-143.48;82.69;118439.88;5117262;28;20069;-71
2023/02/25 05:31:24;;;;;;;17.90;2.67;;;;;;;-143.48;83.95;118439.88;5115892;28;20057;-71
2023/02/25 05:33:51;;;;;;;14.95;2.83;;;;;;;-143.48;84.05;118439.88;5117164;28;20024;-71
2023/02/25 05:36:17;;;;;;;20.25;2.78;;;;;;;-143.48;84.13;118439.88;5117302;28;20055;-71
2023/02/25 05:38:43;;;;;;;25.52;3.10;;;;;;;-143.48;83.93;118439.88;5118488;28;20045;-70
2023/02/25 05:41:09;;;;;;;27.23;3.35;;;;;;;-143.48;83.93;118439.88;5121012;28;20035;-70
2023/02/25 05:43:36;;;;;;;24.13;2.72;;;;;;;-143.48;84.34;118439.88;5120921;28;20027;-70
2023/02/25 05:46:03;;;;;;;16.75;2.08;;;;;;;-143.48;83.54;118439.88;5102272;28;20038;-69
2023/02/25 05:48:30;;;;;;;25.17;3.05;;;;;;;-143.48;83.98;118439.88;5117738;28;20045;-70
2023/02/25 05:51:13;;;;;;;21.10;3.10;;;;;;;-143.48;84.49;118439.88;5117138;28;20356;-70
2023/02/25 05:53:39;;;;;;;17.42;2.63;;;;;;;-143.48;84.56;118439.88;5116826;28;20020;-71
2023/02/25 05:56:12;;;;;;;18.63;3.00;;;;;;;-143.48;84.36;118439.88;5115221;28;20072;-70
2023/02/25 05:58:38;;;;;;;26.38;3.28;;;;;;;-143.48;84.46;118439.88;5116402;28;20024;-70
2023/02/25 06:01:12;;;;;;;20.17;2.67;;;;;;;-143.48;85.42;118439.88;5116424;28;20073;-70
2023/02/25 06:03:38;;;;;;;22.45;2.60;;;;;;;-143.48;84.85;118439.88;5116271;28;20031;-71
2023/02/25 06:06:05;;;;;;;22.08;2.97;;;;;;;-143.48;84.90;118439.88;5097751;28;20044;-70
2023/02/25 06:08:32;;;;;;;16.73;2.40;;;;;;;-143.48;84.65;118439.88;5097794;28;20023;-71
2023/02/25 06:10:59;;;;;;;18.83;2.55;;;;;;;-143.48;85.10;118439.88;5097796;28;20106;-70
2023/02/25 06:13:25;;;;;;;14.32;2.40;;;;;;;-143.48;84.68;118439.88;5097766;28;20394;-70
2023/02/25 06:15:50;;;;;;;17.30;2.22;;;;;;;-143.48;84.50;118439.88;5116080;28;20023;-70
2023/02/25 06:18:15;;;;;;;17.38;2.60;;;;;;;-143.48;85.12;118439.88;5115947;28;20075;-70
2023/02/25 06:20:41;;;;;;;23.50;2.72;;;;;;;-143.48;84.61;118439.88;5115974;28;20108;-71
2023/02/25 06:23:06;;;;;;;16.08;2.72;;;;;;;-143.48;85.18;118439.88;5097499;28;20034;-71
2023/02/25 06:25:31;;;;;;;23.55;2.58;;;;;;;-143.48;84.63;118439.88;5115694;28;20047;-71
2023/02/25 06:27:58;;;;;;;22.35;2.97;;;;;;;-143.48;85.83;118439.88;5115877;28;20028;-70
2023/02/25 06:30:23;;;;;;;22.50;2.70;;;;;;;-143.48;85.34;118439.88;5097445;28;20059;-71
2023/02/25 06:32:49;;;;;;;24.55;2.70;;;;;;;-143.48;84.79;118439.88;5115625;28;20531;-71
2023/02/25 06:35:14;;;;;;;20.83;2.92;;;;;;;-143.48;84.86;118439.88;5097402;28;20024;-70
2023/02/25 06:37:40;;;;;;;21.40;3.03;;;;;;;-143.48;84.35;118439.88;5114326;28;20026;-71
2023/02/25 06:40:06;;;;;;;20.00;2.97;;;;;;;-143.48;83.70;118439.88;5115020;28;20470;-71
2023/02/25 06:42:32;;;;;;;17.83;2.78;;;;;;;-143.48;83.27;118439.88;5097573;28;20027;-71
2023/02/25 06:44:58;;;;;;;17.05;2.50;;;;;;;-143.48;84.03;118439.88;5097995;28;20050;-71
2023/02/25 06:47:23;;;;;;;18.15;2.80;;;;;;;-143.48;84.13;118439.88;5097978;28;20027;-71
2023/02/25 06:49:49;;;;;;;22.35;2.55;;;;;;;-143.48;84.40;118439.88;5097608;28;20118;-71
2023/02/25 06:52:14;;;;;;;20.27;3.08;;;;;;;-143.48;84.13;118439.88;5097017;28;20020;-71
2023/02/25 06:54:39;;;;;;;20.10;2.30;;;;;;;-143.48;83.78;118439.88;5097187;28;20043;-71
2023/02/25 06:57:05;;;;;;;18.58;2.28;;;;;;;-143.48;83.01;118439.88;5115300;28;20087;-71
2023/02/25 06:59:30;;;;;;;24.20;3.13;;;;;;;-143.48;83.62;118439.88;5115288;28;20019;-71
2023/02/25 07:01:56;;;;;;;18.10;2.58;;;;;;;-143.48;82.96;118439.88;5096845;28;20579;-71
2023/02/25 07:04:21;;;;;;;19.77;2.50;;;;;;;-143.48;83.02;118439.88;5115193;28;20360;-71
2023/02/25 07:06:46;;;;;;;14.82;2.40;;;;;;;-143.48;84.03;118439.88;5114906;28;20047;-71
2023/02/25 07:09:11;;;;;;;24.05;2.92;;;;;;;-143.48;83.77;118439.88;5114996;28;20024;-71
2023/02/25 07:11:37;;;;;;;17.35;2.78;;;;;;;-143.48;83.70;118439.88;5096711;28;20068;-71
2023/02/25 07:14:04;;;;;;;24.42;3.28;;;;;;;-143.48;83.30;118439.88;5114993;28;20546;-71
2023/02/25 07:16:30;;;;;;;15.45;2.40;;;;;;;-143.48;82.33;118439.88;5113733;28;20473;-71
2023/02/25 07:18:56;;;;;;;15.77;2.13;;;;;;;-143.48;83.12;118439.88;5114920;28;20023;-71
2023/02/25 07:21:22;;;;;;;18.90;2.50;;;;;;;-143.48;83.05;118439.88;5114686;28;20023;-71
2023/02/25 07:23:48;;;;;;;18.40;2.92;;;;;;;-143.48;82.90;118439.88;5114847;28;20031;-71
2023/02/25 07:26:15;;;;;;;21.65;3.22;;;;;;;-143.48;82.48;118439.88;5114737;28;20023;-71
2023/02/25 07:28:41;;;;;;;17.48;2.72;;;;;;;-143.48;82.61;118439.88;5114488;28;20024;-71
2023/02/25 07:31:18;;;;;;;21.05;2.85;;;;;;;-143.48;83.03;118439.88;5096348;28;20019;-73
2023/02/25 07:33:44;;;;;;;19.52;2.47;;;;;;;-143.48;82.86;118439.88;5114599;28;20052;-71
2023/02/25 07:36:11;;;;;;;30.83;2.70;;;;;;;-143.48;83.16;118439.88;5114430;28;20037;-71
2023/02/25 07:38:37;;;;;;;17.88;2.33;;;;;;;-143.48;84.00;118439.88;5096053;28;20062;-71
2023/02/25 07:41:08;;;;;;;16.50;3.05;;;;;;;-143.48;82.93;118439.88;5114377;28;20462;-71
2023/02/25 07:43:34;;;;;;;16.75;2.30;;;;;;;-143.48;82.24;118439.88;5114376;28;20072;-70
2023/02/25 07:46:00;;;;;;;18.38;3.13;;;;;;;-143.48;82.12;118439.88;5114292;28;20024;-70
2023/02/25 07:48:26;;;;;;;18.85;2.78;;;;;;;-143.48;82.58;118439.88;5095493;28;20024;-70
2023/02/25 07:50:51;;;;;;;24.67;3.10;;;;;;;-143.48;81.44;118439.88;5095757;28;20110;-70
2023/02/25 07:53:16;;;;;;;13.88;2.05;;;;;;;-143.48;81.29;118439.88;5114162;28;20513;-69
2023/02/25 07:55:46;;;;;;;18.00;2.15;;;;;;;-143.48;82.01;118439.88;5114054;28;20099;-70
2023/02/25 07:58:12;;;;;;;12.55;1.70;;;;;;;-143.48;83.48;118439.88;5114095;28;20514;-70
2023/02/25 08:00:39;;;;;;;15.98;2.13;;;;;;;-143.48;83.64;118439.88;5113890;28;20028;-69
2023/02/25 08:03:05;;;;;;;14.18;2.42;;;;;;;-143.48;83.98;118439.88;5095750;28;20026;-70
2023/02/25 08:05:34;;;;;;;16.95;2.00;;;;;;;-143.48;83.83;118439.88;5113810;28;20043;-70
2023/02/25 08:08:00;;;;;;;12.85;2.13;;;;;;;-143.48;84.07;118439.88;5112575;28;20030;-71
2023/02/25 08:10:25;;;;;;;17.48;2.00;;;;;;;-143.48;82.23;118439.88;5115533;28;20024;-71
2023/02/25 08:12:52;;;;;;;11.48;2.15;;;;;;;-143.48;81.45;118439.88;5096815;28;20381;-71
2023/02/25 08:15:25;;;;;;;17.10;2.10;;;;;;;-143.48;81.75;118439.88;5097052;28;20028;-71
2023/02/25 08:17:51;;;;;;;;;;;;;;;-143.48;81.14;118439.88;5115850;28;20094;-72
2023/02/25 08:20:21;;;;;;;12.35;2.28;;;;;;;-143.48;80.68;118439.88;5097466;28;19977;-70
2023/02/25 08:22:46;;;;;;;14.50;2.30;;;;;;;-143.48;80.43;118439.88;5095889;28;20032;-71
2023/02/25 08:25:12;;;;;;;15.73;2.45;;;;;;;-143.48;80.82;118439.88;5114669;28;20088;-70
2023/02/25 08:27:37;;;;;;;22.00;3.00;;;;;;;-143.48;83.43;118439.88;5114781;28;20033;-71
2023/02/25 08:30:07;;;;;;;13.02;2.05;;;;;;;-143.48;83.77;118439.88;5096569;28;20411;-71
2023/02/25 08:32:34;;;;;;;22.50;2.75;;;;;;;-143.48;84.29;118439.88;5114023;28;20034;-71
2023/02/25 08:35:03;;;;;;;9.70;1.90;;;;;;;-143.48;81.97;118439.88;5096872;28;20024;-71
2023/02/25 08:37:36;;;;;;;10.05;2.03;;;;;;;-143.48;80.05;118439.88;5097159;28;20043;-70
2023/02/25 08:40:06;;;;;;;10.90;2.00;;;;;;;-143.48;77.63;118439.88;5114540;28;20509;-71
2023/02/25 08:42:31;;;;;;;9.90;1.88;;;;;;;-143.48;74.64;118439.88;5095618;28;20432;-70
2023/02/25 08:44:57;;;;;;;10.43;1.70;;;;;;;-143.48;77.51;118439.88;5095175;28;20080;-70
2023/02/25 08:47:22;;;;;;;7.85;1.55;;;;;;;-143.48;76.09;118439.88;5114948;28;20054;-71
2023/02/25 08:49:47;;;;;;;11.77;1.30;;;;;;;-143.48;74.70;118439.88;5113777;28;20362;-70
2023/02/25 08:52:13;;;;;;;11.05;2.90;;;;;;;-143.48;73.91;118439.88;5095177;28;20020;-70
2023/02/25 08:54:39;;;;;;;12.77;1.77;;;;;;;-143.48;73.83;118439.88;5113519;28;20448;-70
2023/02/25 08:57:04;;;;;;;9.18;1.25;;;;;;;-143.48;74.76;118439.88;5113134;28;20023;-70
2023/02/25 08:59:34;;;;;;;9.70;1.50;;;;;;;-143.48;75.47;118439.88;5113539;28;20023;-70
2023/02/25 09:02:07;;;;;;;9.95;1.48;;;;;;;-143.48;76.17;118439.88;5117786;28;20080;-69
2023/02/25 09:04:33;;;;;;;10.38;1.25;;;;;;;-143.48;78.48;118439.88;5099689;28;20383;-69
2023/02/25 09:07:02;;;;;;;8.82;1.67;;;;;;;-143.48;80.19;118439.88;5117264;28;20054;-69
2023/02/25 09:09:27;;;;;;;8.38;1.45;;;;;;;-143.48;79.87;118439.88;5099278;28;20019;-70
2023/02/25 09:11:53;;;;;;;11.27;1.50;;;;;;;-143.48;80.95;118439.88;5117638;28;20455;-69
2023/02/25 09:14:19;;;;;;;7.40;1.55;;;;;;;-143.48;80.63;118439.88;5117582;28;20084;-68
2023/02/25 09:16:45;;;;;;;7.13;1.30;;;;;;;-143.48;80.10;118439.88;5117222;28;20020;-69
2023/02/25 09:19:11;;;;;;;12.10;1.75;;;;;;;-143.48;79.19;118439.88;5117355;28;20027;-70
2023/02/25 09:21:39;;;;;;;7.53;1.20;;;;;;;-143.48;77.27;118439.88;5116398;28;20028;-68
2023/02/25 09:24:05;;;;;;;7.72;1.52;;;;;;;-143.48;58.07;118439.88;5117648;28;20024;-68
2023/02/25 09:26:30;;;;;;;7.55;1.60;;;;;;;-143.48;56.24;118439.88;5116006;28;20030;-68
2023/02/25 09:28:59;;;;;;;8.00;1.60;;;;;;;-143.48;67.89;118439.88;5098917;28;20019;-68
2023/02/25 09:31:24;;;;;;;10.38;1.90;;;;;;;-143.48;72.46;118439.88;5116205;28;20020;-68
2023/02/25 09:33:49;;;;;;;10.07;1.60;;;;;;;-143.48;76.33;118439.88;5117486;28;20016;-68
2023/02/25 09:36:16;;;;;;;9.23;1.83;;;;;;;-143.48;78.68;118439.88;5099170;28;20049;-68
2023/02/25 09:38:43;;;;;;;10.23;1.65;;;;;;;-143.48;81.68;118439.88;5116695;28;20122;-68
2023/02/25 09:41:24;;;;;;;11.00;1.60;;;;;;;-143.48;82.60;118439.88;5116807;28;20432;-68
2023/02/25 09:44:15;;;;;;;6.88;1.35;;;;;;;-143.48;81.11;118439.88;5117076;28;20023;-68
2023/02/25 09:46:49;;;;;;;7.35;1.50;;;;;;;-143.48;75.63;118439.88;5116239;28;20180;-68
2023/02/25 09:49:34;;;;;;;4.50;1.13;;;;;;;-143.48;71.92;118439.88;5116690;28;20028;-68
2023/02/25 09:52:21;;;;;;;5.80;1.10;;;;;;;-143.48;76.84;118439.88;5098545;28;20181;-68
2023/02/25 09:54:54;;;;;;;7.38;1.02;;;;;;;-143.48;76.64;118439.88;5116771;28;20109;-67
2023/02/25 09:57:22;;;;;;;4.85;1.00;;;;;;;-143.48;76.64;118439.88;5098827;28;20119;-67
2023/02/25 09:59:49;;;;;;;7.38;1.30;;;;;;;-143.48;77.64;118439.88;5098520;28;20454;-67
2023/02/25 10:02:26;;;;;;;7.68;1.30;;;;;;;-143.48;77.80;118439.88;5116438;28;20054;-64
2023/02/25 10:05:21;;;;;;;6.25;1.00;;;;;;;-143.48;75.16;118439.88;5116530;28;20094;-67
2023/02/25 10:08:06;;;;;;;4.70;1.70;;;;;;;-143.48;75.38;118439.88;5116855;28;20447;-68
2023/02/25 10:10:54;;;;;;;8.52;1.35;;;;;;;-143.48;72.16;118439.88;5116566;28;20030;-68
2023/02/25 10:13:33;;;;;;;8.98;1.70;;;;;;;-143.48;73.19;118439.88;5105177;28;20035;-68
2023/02/25 10:16:01;;;;;;;7.93;2.70;;;;;;;-143.48;71.40;118439.88;5116513;28;20027;-68
2023/02/25 10:19:00;;;;;;;14.75;3.35;;;;;;;-143.48;71.25;118439.88;5116498;28;20039;-67
2023/02/25 10:21:38;;;;;;;4.55;1.38;;;;;;;-143.48;70.31;118439.88;5089252;28;20103;-66
2023/02/25 10:24:18;;;;;;;9.10;1.45;;;;;;;-143.48;68.32;118439.88;5115623;28;20073;-68
2023/02/25 10:26:59;;;;;;;7.18;1.58;;;;;;;-143.48;65.37;118439.88;5097368;28;20024;-67
2023/02/25 10:29:50;;;;;;;5.07;1.10;;;;;;;-143.48;65.34;118439.88;5098146;28;20026;-68
2023/02/25 10:32:26;;;;;;;10.43;1.40;;;;;;;-143.48;65.25;118439.88;5116342;28;20023;-67
2023/02/25 10:34:56;;;;;;;9.48;1.38;;;;;;;-143.48;57.85;118439.88;5097510;28;20027;-68
2023/02/25 10:37:31;;;;;;;6.55;1.10;;;;;;;-143.48;45.33;118439.88;5115647;28;20023;-68
2023/02/25 10:39:58;;;;;;;7.50;1.60;;;;;;;-143.48;44.68;118439.88;5097722;28;20459;-68
2023/02/25 10:42:25;;;;;;;8.20;1.70;;;;;;;-143.48;47.22;118439.88;5116126;28;20019;-69
2023/02/25 10:44:51;;;;;;;8.52;1.75;;;;;;;-143.48;53.75;118439.88;5114922;28;20498;-70
2023/02/25 10:47:27;;;;;;;8.35;1.40;;;;;;;-143.48;61.93;118439.88;5115766;28;20031;-69
2023/02/25 10:50:09;;;;;;;5.78;1.30;;;;;;;-143.48;67.51;118439.88;5114244;28;20115;-67
2023/02/25 10:52:53;;;;;;;8.95;1.70;;;;;;;-143.48;70.76;118439.88;5113889;28;20454;-69
2023/02/25 10:55:26;;;;;;;;;;;;;;;-143.48;72.74;118439.88;5116193;28;20107;-69
2023/02/25 10:57:51;;;;;;;4.18;1.15;;;;;;;-143.48;71.10;118439.88;5115946;28;19915;-68
2023/02/25 11:00:28;;;;;;;7.32;1.20;;;;;;;-143.48;66.65;118439.88;5119109;28;20027;-68
2023/02/25 11:02:56;;;;;;;4.18;1.23;;;;;;;-143.48;63.93;118439.88;5115966;28;20118;-68
2023/02/25 11:05:31;;;;;;;5.72;1.00;;;;;;;-143.48;62.32;118439.88;5114475;28;20040;-68
2023/02/25 11:07:56;;;;;;;6.68;1.25;;;;;;;-143.48;59.09;118439.88;5114614;28;20059;-68
2023/02/25 11:10:22;;;;;;;3.85;1.20;;;;;;;-143.48;58.59;118439.88;5115296;28;20066;-69
2023/02/25 11:12:54;;;;;;;9.30;1.20;;;;;;;-143.48;56.98;118439.88;5115788;28;20028;-68
2023/02/25 11:15:25;;;;;;;5.68;1.38;;;;;;;-143.48;58.13;118439.88;5116683;28;20051;-68